E.r. Bern — A8XQ5 — position and weather

sailwx.info

Track history (hours):
 
Tides and Currents Weather Stations Pressure Air Temp Water Temp Dewpoint Dewpoint Depression Visibility Wind Speed Wind Dir Waves Ship Positions

E.r. Bern

Last reported at 2015-Jan-15 11:30 UTC. Time now 2015-Jan-30 14:04 UTC.
Position S 22°52' W 041°14'.
Warning: this ship's position is 15 days out of date.

Length 187 m; draft 10.6 m.

Type: Cargo ship. MMSI: 636092150.

Date/timePositionNaut miles runAvg speedWind from/ knotsBaromVisibWave heightAir tempDewpointWater temp
2015-Jan-15 11:30S 22°52' W 041°14'1010.1
2015-Jan-15 10:33S 22°60' W 041°21'1410.4
2015-Jan-15 09:12S 23°10' W 041°32'710.5
2015-Jan-15 08:33S 23°15' W 041°36'1210.5
2015-Jan-15 07:27S 23°24' W 041°45'  
2015-Jan-11 15:06S 34°59' W 054°17'713.1
2015-Jan-11 14:33S 35°02' W 054°25'2612.9
2015-Jan-11 12:31S 35°06' W 054°56'5212.4
2015-Jan-11 08:21S 35°03' W 055°60'18 9.2
2015-Jan-11 06:24S 35°10' W 056°20'8 9.9
2015-Jan-11 05:33S 35°10' W 056°30'10 9.5
2015-Jan-11 04:33S 35°10' W 056°42'9 9.0
2015-Jan-11 03:33S 35°10' W 056°53'9 9.1
2015-Jan-11 02:33S 35°07' W 057°04'1110.8
2015-Jan-11 01:33S 34°60' W 057°13'1111.4
2015-Jan-11 00:33S 34°51' W 057°22'1110.9
2015-Jan-10 23:34S 34°46' W 057°34'1010.3
2015-Jan-10 22:33S 34°44' W 057°46'6 5.6
2015-Jan-10 21:32S 34°43' W 057°53'0 0.2
2015-Jan-10 20:32S 34°43' W 057°53'0 0.0
2015-Jan-10 19:32S 34°43' W 057°53'0 0.0
2015-Jan-10 18:32S 34°43' W 057°53'0 0.0
2015-Jan-10 17:32S 34°43' W 057°53'0 0.0
2015-Jan-10 16:32S 34°43' W 057°53'0 0.0
2015-Jan-10 15:32S 34°43' W 057°53'6 5.8
2015-Jan-10 14:33S 34°41' W 057°59'1111.3
2015-Jan-10 13:33S 34°37' W 058°12'10 9.9
2015-Jan-10 12:33S 34°31' W 058°21'  
Track history (hours):
 
Tides and Currents Weather Stations Pressure Air Temp Water Temp Dewpoint Dewpoint Depression Visibility Wind Speed Wind Dir Waves Ship Positions

E.r. Bern

Last reported at 2015-Jan-15 11:30 UTC. Time now 2015-Jan-30 14:04 UTC.
Position S 22°52' W 041°14'.
Warning: this ship's position is 15 days out of date.

Length 187 m; draft 10.6 m.

Type: Cargo ship. MMSI: 636092150.

Date/timePositionNaut miles runAvg speedWind from/ knotsBaromVisibWave heightAir tempDewpointWater temp
2015-Jan-15 11:30S 22°52' W 041°14'1010.1
2015-Jan-15 10:33S 22°60' W 041°21'1410.4
2015-Jan-15 09:12S 23°10' W 041°32'710.5
2015-Jan-15 08:33S 23°15' W 041°36'1210.5
2015-Jan-15 07:27S 23°24' W 041°45'  
2015-Jan-11 15:06S 34°59' W 054°17'713.1
2015-Jan-11 14:33S 35°02' W 054°25'2612.9
2015-Jan-11 12:31S 35°06' W 054°56'5212.4
2015-Jan-11 08:21S 35°03' W 055°60'18 9.2
2015-Jan-11 06:24S 35°10' W 056°20'8 9.9
2015-Jan-11 05:33S 35°10' W 056°30'10 9.5
2015-Jan-11 04:33S 35°10' W 056°42'9 9.0
2015-Jan-11 03:33S 35°10' W 056°53'9 9.1
2015-Jan-11 02:33S 35°07' W 057°04'1110.8
2015-Jan-11 01:33S 34°60' W 057°13'1111.4
2015-Jan-11 00:33S 34°51' W 057°22'1110.9
2015-Jan-10 23:34S 34°46' W 057°34'1010.3
2015-Jan-10 22:33S 34°44' W 057°46'6 5.6
2015-Jan-10 21:32S 34°43' W 057°53'0 0.2
2015-Jan-10 20:32S 34°43' W 057°53'0 0.0
2015-Jan-10 19:32S 34°43' W 057°53'0 0.0
2015-Jan-10 18:32S 34°43' W 057°53'0 0.0
2015-Jan-10 17:32S 34°43' W 057°53'0 0.0
2015-Jan-10 16:32S 34°43' W 057°53'0 0.0
2015-Jan-10 15:32S 34°43' W 057°53'6 5.8
2015-Jan-10 14:33S 34°41' W 057°59'1111.3
2015-Jan-10 13:33S 34°37' W 058°12'10 9.9
2015-Jan-10 12:33S 34°31' W 058°21'  

Dump ship's entire track history